Weather reports worldwide

Advertisment
Soknedal, Norway (1253): temperature & dewpoint: 25.09.2020 15:00:00 - 01.10.2020 15:00:00 (CEST)Soknedal, Norway (1253): wind speed & gusts: 25.09.2020 15:00:00 - 01.10.2020 15:00:00 (CEST)Soknedal, Norway (1253): wind direction: 25.09.2020 15:00:00 - 01.10.2020 15:00:00 (CEST)Soknedal, Norway (1253): precipitation: 25.09.2020 15:00:00 - 01.10.2020 15:00:00 (CEST)
Date & Time tt [°C] td [°C] ff [km/h] ff [kn] fx [km/h] fx [kn] dd rr [mm]
01.10.2020 15:00:00 - - - - - - - -
01.10.2020 14:00:00 15,9 8,2 16 9 46 25 SSE 0,0
01.10.2020 13:00:00 - - - - - - - -
01.10.2020 12:00:00 15,4 8,2 21 12 44 24 SSE 0,0
01.10.2020 11:00:00 14,7 8,4 14 8 37 20 SSE 0,0
01.10.2020 10:00:00 13,9 7,7 16 9 33 18 SSE 0,0
01.10.2020 09:00:00 - - - - - - - -
01.10.2020 08:00:00 11,9 7,4 9 5 21 12 SSW 0,0
01.10.2020 07:00:00 11,4 7,5 8 4 22 12 S 0,0
01.10.2020 06:00:00 11,5 7,4 8 5 22 12 SSW 0,0
01.10.2020 05:00:00 11,6 7,5 9 5 20 11 SSW 0,0
01.10.2020 04:00:00 10,1 7,2 6 3 15 8 WSW 0,0
01.10.2020 03:00:00 11,1 7,8 9 5 16 9 S 0,0
01.10.2020 02:00:00 9,8 7,2 6 3 13 7 SW 0,0
01.10.2020 01:00:00 10,4 7,8 4 2 14 7 W 0,0
01.10.2020 00:00:00 10,8 7,5 8 4 21 11 WSW 0,0
30.09.2020 23:00:00 11,0 7,5 9 5 16 9 SW 0,0
30.09.2020 22:00:00 9,3 7,4 2 1 13 7 WNW 0,0
30.09.2020 21:00:00 - - - - - - - -
30.09.2020 20:00:00 12,1 7,4 6 4 14 8 SSW 0,0
30.09.2020 19:00:00 12,9 7,6 5 3 16 9 SSW 0,0
30.09.2020 18:00:00 - - - - - - - -
30.09.2020 17:00:00 - - - - - - - -
30.09.2020 16:00:00 - - - - - - - -
30.09.2020 15:00:00 17,1 8,8 11 6 33 18 SSE 0,0
30.09.2020 14:00:00 17,1 8,5 11 6 28 15 SE 0,0
30.09.2020 13:00:00 - - - - - - - -
30.09.2020 12:00:00 - - - - - - - -
30.09.2020 11:00:00 12,5 7,4 3 2 18 10 ESE 0,0
30.09.2020 10:00:00 10,7 7,2 2 1 13 7 ENE 0,0
30.09.2020 09:00:00 - - - - - - - -
30.09.2020 08:00:00 7,2 4,7 6 3 16 8 SW 0,0
30.09.2020 07:00:00 9,0 5,2 8 4 19 10 SW 0,0
30.09.2020 06:00:00 10,8 6,4 10 5 19 10 SSW 0,0
30.09.2020 05:00:00 - - - - - - - -
30.09.2020 04:00:00 10,4 10,0 3 1 9 5 SSW 0,1
30.09.2020 03:00:00 10,2 9,7 1 1 9 5 WSW 0,0
30.09.2020 02:00:00 9,8 9,2 2 1 8 4 SSE 0,1
30.09.2020 01:00:00 9,2 8,3 3 1 9 5 W 0,0
30.09.2020 00:00:00 11,2 9,1 6 4 14 7 W 0,0
29.09.2020 23:00:00 12,7 9,9 6 4 13 7 SSW 0,0
29.09.2020 22:00:00 - - - - - - - -
29.09.2020 21:00:00 11,0 9,1 4 2 11 6 SW 0,0
29.09.2020 20:00:00 11,5 9,6 3 1 14 8 S 0,0
29.09.2020 19:00:00 11,1 9,4 3 1 10 6 W 0,0
29.09.2020 18:00:00 13,8 10,8 7 4 14 8 WNW 0,0
29.09.2020 17:00:00 14,6 11,2 6 3 12 7 W 0,0
29.09.2020 16:00:00 15,2 10,8 6 4 13 7 WNW 0,0
29.09.2020 15:00:00 17,2 11,0 7 4 15 8 W 0,0
29.09.2020 14:00:00 18,7 11,0 6 3 20 11 ESE 0,0
29.09.2020 13:00:00 18,5 10,4 6 3 20 11 SSE 0,0
29.09.2020 12:00:00 17,7 11,3 5 3 13 7 ESE 0,0
29.09.2020 11:00:00 15,3 11,1 3 2 6 3 ESE 0,0
29.09.2020 10:00:00 12,7 9,4 2 1 11 6 WNW 0,0
29.09.2020 09:00:00 11,4 8,8 7 4 13 7 SSE 0,0
29.09.2020 08:00:00 10,6 8,5 7 4 13 7 WSW 0,0
29.09.2020 07:00:00 9,2 7,7 4 2 11 6 WSW 0,0
29.09.2020 06:00:00 8,8 7,6 5 3 8 4 S 0,0
29.09.2020 05:00:00 10,3 8,6 3 2 8 5 S 0,0
29.09.2020 04:00:00 11,3 8,7 5 3 19 11 WNW 0,0
29.09.2020 03:00:00 13,7 9,2 12 6 25 13 SSW 0,0
29.09.2020 02:00:00 14,1 8,9 9 5 20 11 SW 0,0
29.09.2020 01:00:00 14,4 8,8 12 6 22 12 WSW 0,0
29.09.2020 00:00:00 15,2 9,1 12 6 22 12 WSW 0,0
28.09.2020 23:00:00 14,1 9,5 5 3 25 13 S 0,0
28.09.2020 22:00:00 14,0 11,0 5 3 14 8 SW 0,0
28.09.2020 21:00:00 - - - - - - - -
28.09.2020 20:00:00 12,4 10,1 4 2 14 7 WSW 0,0
28.09.2020 19:00:00 - - - - - - - -
28.09.2020 18:00:00 - - - - - - - -
28.09.2020 17:00:00 16,9 11,2 4 2 21 11 SSW 0,0
28.09.2020 16:00:00 17,6 11,2 5 3 18 10 WSW 0,0
28.09.2020 15:00:00 - - - - - - - -
28.09.2020 14:00:00 20,0 11,2 12 6 22 12 SSE 0,0
28.09.2020 13:00:00 20,0 11,5 4 2 19 10 SSE 0,0
28.09.2020 12:00:00 17,5 10,2 12 6 22 12 SW 0,0
28.09.2020 11:00:00 16,2 11,0 4 2 10 5 ESE 0,0
28.09.2020 10:00:00 13,0 10,7 3 2 10 5 SSE 0,0
28.09.2020 09:00:00 11,2 10,1 2 1 12 6 SW 0,0
28.09.2020 08:00:00 12,4 10,0 7 4 12 7 SSW 0,0
28.09.2020 07:00:00 11,1 9,4 4 2 13 7 SSW 0,0
28.09.2020 06:00:00 - - - - - - - -
28.09.2020 05:00:00 - - - - - - - -
28.09.2020 04:00:00 11,7 9,4 4 2 13 7 W 0,0
28.09.2020 03:00:00 - - - - - - - -
28.09.2020 02:00:00 10,2 9,0 4 2 10 5 SE 0,0
28.09.2020 01:00:00 10,9 9,5 5 3 15 8 SW 0,0
28.09.2020 00:00:00 9,1 7,9 4 2 13 7 SSE 0,0
27.09.2020 23:00:00 10,9 8,3 4 2 18 10 WSW 0,0
27.09.2020 22:00:00 11,3 8,9 9 5 17 9 WSW 0,0
27.09.2020 21:00:00 9,6 8,4 3 1 8 5 S 0,0
27.09.2020 20:00:00 10,5 8,4 5 3 17 9 SSW 0,0
27.09.2020 19:00:00 13,3 9,0 10 6 22 12 SW 0,0
27.09.2020 18:00:00 14,1 9,7 4 2 22 12 WSW 0,0
27.09.2020 17:00:00 14,8 9,6 11 6 26 14 S 0,0
27.09.2020 16:00:00 14,5 9,7 6 3 26 14 SSW 0,0
27.09.2020 15:00:00 15,3 9,2 6 3 23 12 SSW 0,0
27.09.2020 14:00:00 14,5 8,7 9 5 19 10 SSW 0,0
27.09.2020 13:00:00 13,1 8,2 5 3 20 11 SSE 0,0
27.09.2020 12:00:00 13,2 8,7 10 6 18 10 SE 0,0
27.09.2020 11:00:00 - - - - - - - -
27.09.2020 10:00:00 - - - - - - - -
27.09.2020 09:00:00 4,5 4,4 8 5 17 9 SSE 0,0
27.09.2020 08:00:00 2,7 2,7 3 1 8 4 S 0,0
27.09.2020 07:00:00 - - - - - - - -
27.09.2020 06:00:00 3,4 3,3 2 1 4 2 S 0,0
27.09.2020 05:00:00 4,4 4,3 1 0 2 1 NNW 0,0
27.09.2020 04:00:00 4,6 4,5 2 1 5 3 S 0,0
27.09.2020 03:00:00 4,6 4,5 1 1 3 2 WSW 0,0
27.09.2020 02:00:00 4,6 4,3 2 1 4 2 SSW 0,0
27.09.2020 01:00:00 4,6 4,3 1 1 3 2 SSE 0,0
27.09.2020 00:00:00 4,5 4,2 1 1 6 3 NNW 0,0
26.09.2020 23:00:00 4,4 4,1 2 1 3 2 NW 0,0
26.09.2020 22:00:00 4,4 4,1 1 1 4 2 NW 0,0
26.09.2020 21:00:00 4,5 4,1 1 1 4 2 NW 0,0
26.09.2020 20:00:00 4,6 3,9 2 1 5 3 SW 0,0
26.09.2020 19:00:00 4,7 3,8 3 1 6 3 WNW 0,0
26.09.2020 18:00:00 5,0 3,8 3 1 5 3 W 0,0
26.09.2020 17:00:00 5,2 4,2 1 1 15 8 N 0,0
26.09.2020 16:00:00 5,2 3,7 5 3 15 8 NNE 0,0
26.09.2020 15:00:00 5,3 3,6 8 4 14 8 N 0,3
26.09.2020 14:00:00 5,6 4,2 5 3 11 6 N 0,2
26.09.2020 13:00:00 5,7 4,2 4 2 13 7 NNE 0,0
26.09.2020 12:00:00 5,5 3,8 5 3 12 7 NE 0,0
26.09.2020 11:00:00 - - - - - - - -
26.09.2020 10:00:00 - - - - - - - -
26.09.2020 09:00:00 4,5 3,3 6 3 18 10 N 0,0
26.09.2020 08:00:00 4,5 3,2 3 2 15 8 NNE 0,0
26.09.2020 07:00:00 4,6 3,3 6 4 18 10 N 0,0
26.09.2020 06:00:00 4,5 3,5 2 1 4 2 NW 0,0
26.09.2020 05:00:00 4,5 3,5 3 2 7 4 NNW 0,0
26.09.2020 04:00:00 4,6 3,4 3 1 9 5 NNW 0,0
26.09.2020 03:00:00 4,7 3,4 4 2 10 5 NNW 0,0
26.09.2020 02:00:00 4,5 3,6 4 2 9 5 WNW 0,0
26.09.2020 01:00:00 4,6 3,7 3 2 9 5 WNW 0,0
26.09.2020 00:00:00 4,3 4,2 1 1 5 3 NW 0,0
25.09.2020 23:00:00 3,7 3,4 1 1 4 2 SW 0,0
25.09.2020 22:00:00 4,0 3,7 1 1 8 4 N 0,0
25.09.2020 21:00:00 3,8 3,4 1 1 5 3 NW 0,0
25.09.2020 20:00:00 4,4 3,7 3 1 6 3 W 0,0
25.09.2020 19:00:00 - - - - - - - -
25.09.2020 18:00:00 5,9 4,7 5 3 8 5 WNW 0,0
25.09.2020 17:00:00 7,4 4,7 3 2 12 7 WNW 0,0
25.09.2020 16:00:00 - - - - - - - -
25.09.2020 15:00:00 7,3 5,0 5 3 17 9 NE 0,4

tt = temperature
td = dewpoint
ff = wind speed
fx = gusts
dd = wind direction
rr = precipitation

Next stations